KHVE/HVE METAR and TAF weather

Enter ICAO airport designator
Station Type Date Time Source
KHVE METAR 2024/06/15 23:55 UTC NOAA

KHVE 152355Z AUTO 22015G20KT 10SM CLR 36/M06 A2976 RMK AO2


Station Type Date Time Source
KHVE Decoded METAR 2024/06/15 23:55 UTC NOAA

Station name not available
Jun 15, 2024 - 07:55 PM EDT / 2024.06.15 2355 UTC
Wind: from the SW (220 degrees) at 17 MPH (15 KT) gusting to 23 MPH (20 KT):0
Visibility: 10 mile(s):0
Sky conditions: clear
Temperature: 96 F (36 C)
Dew Point: 21 F (-6 C)
Relative Humidity: 6%
Pressure (altimeter): 29.76 in. Hg (1007 hPa)
ob: KHVE 152355Z AUTO 22015G20KT 10SM CLR 36/M06 A2976 RMK AO2
cycle: 0

Station Type Date Time Source
KHVE TAF UTC NOAA

Error!

Example: see airport list